Grand Rapids, MI

10:32 AM EST on November 22, 2014 (GMT -0500)
Near Lake Michigan Dr and Collindale | Change Station
CLOSE
Current Station
Personal Weather Station
Location: Grand Rapids, MI
Elevation: 748 ft
Nearby Weather Stations

Elev 748 ft 42.98 °N, 85.74 °W | Updated 15 seconds ago

Overcast
Overcast
36.3 °F
Feels Like 30 °F
N
9.0
Wind Variable Wind from SSW
Gusts 11.0 mph

Today
High -- | Low -- °F
--% Chance of Precip.
Yesterday
High -- | Low -- °F
Precip. -- in
7:44 AM 5:13 PM
New Moon, 0% visible
Pressure 30.01 in
Visibility 2.5 miles
Clouds Overcast 500 ft
Windchill 30 °F
Dew Point 34 °F
Humidity 91%
Rainfall 0.00 in
Snow Depth Not available.
UV 0 out of 12
Pollen .10 out of 12
Air Quality Not available.
Flu Activity Not available.
SPECI KGRR 221515Z 22010KT 2 1/2SM -RA BR OVC005 02/01 A3001 RMK AO2 P0000 T00220011

More Conditions Fewer Conditions

Pressure 30.01 in
Visibility 2.5 miles
Clouds Overcast 500 ft
Windchill 30 °F
Dew Point 34 °F
Humidity 91%
Rainfall 0.00 in
Snow Depth Not available.
UV 0 out of 12
Pollen .10 out of 12
Air Quality Not available.
Flu Activity Not available.
SPECI KGRR 221515Z 22010KT 2 1/2SM -RA BR OVC005 02/01 A3001 RMK AO2 P0000 T00220011

More Conditions Fewer Conditions

10-Day Weather Forecast

Almanac

Astronomy

Nov. 22, 2014 Rise Set
Actual Time
Civil Twilight
Nautical Twilight
Astronomical Twilight
Moon
Length of Visible Light
Length of Day
Tomorrow will be .
, % of the Moon is Illuminated

Today's Extremes

State Highs State Lows

Community

WunderPhotos

Upload Photos

1,772,835 photos uploaded!

WunderBlogs® & News

Nearby

Air Quality

  Air Quality AQ Index Pollutant
Not available.

Snow Depth

Station Depth Elevation

Earthquake Activity

City Distance Mag. Time & Date
Minimum magnitude displayed is 2.5.

Coastal Water Temperatures

Place Temperature

Nearby Weather Stations